Time;durP1;ratioP1;P1;durP2;ratioP2;P2;SDS_P1;SDS_P2;PMS_P1;PMS_P2;Temp;Humidity;BMP_temperature;BMP_pressure;BME280_temperature;BME280_humidity;BME280_pressure;Samples;Min_cycle;Max_cycle;Signal;HPM_P1;HPM_P2
2024/03/23 00:00:37;;;;;;;23.70;5.43;;;7.30;99.90;;;;;;6245077;22;37769;-78
2024/03/23 00:03:04;;;;;;;16.73;4.60;;;7.20;99.90;;;;;;6220767;22;38298;-78
2024/03/23 00:05:31;;;;;;;11.57;5.27;;;7.30;99.90;;;;;;6276041;22;38756;-78
2024/03/23 00:07:58;;;;;;;16.67;5.47;;;7.30;99.90;;;;;;6276025;22;38543;-78
2024/03/23 00:10:25;;;;;;;16.17;5.40;;;7.30;99.90;;;;;;6245775;22;37425;-78
2024/03/23 00:12:52;;;;;;;22.00;6.33;;;7.30;99.90;;;;;;6222587;22;39255;-78
2024/03/23 00:15:19;;;;;;;23.23;5.67;;;7.30;99.90;;;;;;6274681;22;39602;-78
2024/03/23 00:17:46;;;;;;;18.23;5.27;;;7.30;99.90;;;;;;6248026;22;39553;-78
2024/03/23 00:20:14;;;;;;;18.17;5.67;;;7.30;99.90;;;;;;6273880;22;37186;-78
2024/03/23 00:22:41;;;;;;;18.90;5.70;;;7.30;99.90;;;;;;6276128;22;39830;-78
2024/03/23 00:25:08;;;;;;;19.17;6.33;;;7.30;99.90;;;;;;6247018;22;40460;-78
2024/03/23 00:27:35;;;;;;;18.47;6.20;;;7.40;99.90;;;;;;6250439;22;40076;-78
2024/03/23 00:30:03;;;;;;;18.23;5.87;;;7.40;99.90;;;;;;6248773;22;38767;-78
2024/03/23 00:32:30;;;;;;;15.43;6.23;;;7.40;99.90;;;;;;6195309;22;39517;-79
2024/03/23 00:34:57;;;;;;;27.30;7.33;;;7.40;99.90;;;;;;6197286;22;39860;-78
2024/03/23 00:37:25;;;;;;;28.03;8.60;;;7.50;99.90;;;;;;6274968;22;39622;-78
2024/03/23 00:39:52;;;;;;;27.63;7.40;;;7.50;99.90;;;;;;6276747;22;38263;-78
2024/03/23 00:42:19;;;;;;;19.70;7.20;;;7.50;99.90;;;;;;6220810;22;39336;-78
2024/03/23 00:44:46;;;;;;;24.57;9.87;;;7.50;99.90;;;;;;6222412;22;39648;-78
2024/03/23 00:47:13;;;;;;;27.93;10.10;;;7.60;99.90;;;;;;6247381;22;39436;-78
2024/03/23 00:49:40;;;;;;;33.87;11.27;;;7.60;99.90;;;;;;6221963;22;37216;-78
2024/03/23 00:52:07;;;;;;;42.23;11.60;;;7.70;99.90;;;;;;6275846;22;38462;-78
2024/03/23 00:54:33;;;;;;;32.33;10.97;;;7.70;99.90;;;;;;6276071;22;39303;-78
2024/03/23 00:57:00;;;;;;;32.37;10.47;;;7.80;99.90;;;;;;6245249;22;39299;-78
2024/03/23 00:59:28;;;;;;;34.83;11.47;;;7.80;99.90;;;;;;6274208;22;37277;-78
2024/03/23 01:01:57;;;;;;;32.73;10.83;;;7.80;99.90;;;;;;6273299;22;38707;-77
2024/03/23 01:04:23;;;;;;;40.20;10.17;;;7.70;99.90;;;;;;6274908;22;39320;-78
2024/03/23 01:06:49;;;;;;;31.47;9.23;;;7.70;99.90;;;;;;6244974;22;38204;-77
2024/03/23 01:09:15;;;;;;;26.43;9.13;;;7.70;99.90;;;;;;6242802;22;36717;-77
2024/03/23 01:11:42;;;;;;;41.57;9.03;;;7.60;99.90;;;;;;6244886;22;39513;-78
2024/03/23 01:14:08;;;;;;;27.87;5.83;;;7.50;99.90;;;;;;6272710;22;39566;-77
2024/03/23 01:16:34;;;;;;;27.80;6.13;;;7.40;99.90;;;;;;6244327;22;39178;-78
2024/03/23 01:19:00;;;;;;;23.53;5.70;;;7.30;99.90;;;;;;6241178;22;39118;-77
2024/03/23 01:21:26;;;;;;;25.67;5.50;;;7.30;99.90;;;;;;6244232;22;40132;-78
2024/03/23 01:23:52;;;;;;;21.50;5.87;;;7.20;99.90;;;;;;6274646;22;39853;-80
2024/03/23 01:26:19;;;;;;;23.13;4.73;;;7.20;99.90;;;;;;6245989;22;38995;-77
2024/03/23 01:28:45;;;;;;;26.27;3.87;;;7.10;99.90;;;;;;6274612;22;37313;-77
2024/03/23 01:31:11;;;;;;;13.70;3.30;;;7.10;99.90;;;;;;6274891;22;38639;-78
2024/03/23 01:33:37;;;;;;;20.27;3.27;;;7.10;99.90;;;;;;6277601;22;38884;-77
2024/03/23 01:36:04;;;;;;;17.37;3.00;;;7.00;99.90;;;;;;6275769;22;38478;-77
2024/03/23 01:38:30;;;;;;;22.30;3.53;;;7.00;99.90;;;;;;6256285;22;37142;-78
2024/03/23 01:40:57;;;;;;;19.80;3.47;;;7.00;99.90;;;;;;6255575;22;37289;-78
2024/03/23 01:43:23;;;;;;;27.83;3.73;;;6.90;99.90;;;;;;6257476;22;39237;-78
2024/03/23 01:45:52;;;;;;;20.27;3.80;;;7.00;99.90;;;;;;6283918;22;39716;-78
2024/03/23 01:48:20;;;;;;;18.30;3.03;;;7.00;99.90;;;;;;6282243;22;37412;-78
2024/03/23 01:50:48;;;;;;;19.70;3.30;;;7.00;99.90;;;;;;6248892;22;39621;-77
2024/03/23 01:53:17;;;;;;;27.00;4.60;;;6.90;99.90;;;;;;6246509;22;40341;-77
2024/03/23 01:55:44;;;;;;;19.90;4.03;;;6.90;99.90;;;;;;6246788;22;38851;-77
2024/03/23 01:58:10;;;;;;;19.90;3.47;;;6.90;99.90;;;;;;6247888;22;39001;-77
2024/03/23 02:03:32;;;;;;;13.93;3.20;;;6.90;99.90;;;;;;6275752;22;20020;-78
2024/03/23 02:05:59;;;;;;;21.80;3.73;;;6.80;99.90;;;;;;6304109;22;38628;-78
2024/03/23 02:08:25;;;;;;;23.67;3.30;;;6.90;99.90;;;;;;6278721;22;38500;-78
2024/03/23 02:10:51;;;;;;;24.37;4.37;;;6.90;99.90;;;;;;6278727;22;37776;-78
2024/03/23 02:13:19;;;;;;;26.47;3.00;;;6.80;99.90;;;;;;6306149;22;38993;-79
2024/03/23 02:15:45;;;;;;;17.63;3.83;;;6.80;99.90;;;;;;6307903;22;38592;-78
2024/03/23 02:18:11;;;;;;;18.70;3.77;;;6.70;99.90;;;;;;6278171;22;35966;-77
2024/03/23 02:20:38;;;;;;;19.83;3.00;;;6.70;99.90;;;;;;6277981;22;40723;-77
2024/03/23 02:23:07;;;;;;;15.73;3.17;;;6.70;99.90;;;;;;6279105;22;38407;-77
2024/03/23 02:25:33;;;;;;;24.30;3.90;;;6.70;99.90;;;;;;6277336;22;38821;-78
2024/03/23 02:28:00;;;;;;;17.23;3.10;;;6.70;99.90;;;;;;6306053;22;37019;-78
2024/03/23 02:30:27;;;;;;;24.53;3.10;;;6.80;99.90;;;;;;6276298;22;41086;-78
2024/03/23 02:32:53;;;;;;;20.47;3.67;;;6.80;99.90;;;;;;6278960;22;40304;-79
2024/03/23 02:35:19;;;;;;;16.73;3.97;;;6.80;99.90;;;;;;6277110;22;39098;-77
2024/03/23 02:37:48;;;;;;;27.63;3.60;;;6.80;99.90;;;;;;6277209;22;37492;-78
2024/03/23 02:40:15;;;;;;;19.10;2.90;;;6.80;93.60;;;;;;6305349;22;38741;-77
2024/03/23 02:42:41;;;;;;;14.73;3.57;;;6.90;91.20;;;;;;6276350;22;40436;-78
2024/03/23 02:45:07;;;;;;;19.67;3.53;;;6.90;78.30;;;;;;6277408;22;39193;-77
2024/03/23 02:47:34;;;;;;;24.93;3.60;;;6.90;84.80;;;;;;6307065;22;37215;-77
2024/03/23 02:50:00;;;;;;;12.40;2.80;;;6.90;92.30;;;;;;6278923;22;39409;-77
2024/03/23 02:52:26;;;;;;;22.70;3.17;;;6.90;91.60;;;;;;6276053;22;38070;-78
2024/03/23 02:54:52;;;;;;;18.17;3.30;;;6.90;76.30;;;;;;6307102;22;39382;-78
2024/03/23 02:57:18;;;;;;;16.27;3.33;;;6.90;82.50;;;;;;6303811;22;36859;-78
2024/03/23 02:59:45;;;;;;;10.73;2.97;;;6.80;79.80;;;;;;6279157;22;40424;-79
2024/03/23 03:02:13;;;;;;;17.37;3.07;;;6.80;84.00;;;;;;6276172;22;40009;-77
2024/03/23 03:04:39;;;;;;;17.37;2.73;;;6.80;80.50;;;;;;6305390;22;38380;-78
2024/03/23 03:07:05;;;;;;;13.33;2.07;;;6.70;75.00;;;;;;6304962;22;37950;-77
2024/03/23 03:09:32;;;;;;;16.07;2.83;;;6.70;57.80;;;;;;6277912;22;39419;-77
2024/03/23 03:11:58;;;;;;;9.70;2.03;;;6.70;43.00;;;;;;6277069;22;40425;-78
2024/03/23 03:14:24;;;;;;;17.53;2.80;;;6.70;54.70;;;;;;6305061;22;38590;-78
2024/03/23 03:16:51;;;;;;;11.07;2.37;;;6.60;70.40;;;;;;6307362;22;37022;-77
2024/03/23 03:19:17;;;;;;;13.87;3.13;;;6.60;74.40;;;;;;6306791;22;38421;-77
2024/03/23 03:21:43;;;;;;;16.63;2.67;;;6.50;68.40;;;;;;6305428;22;39554;-77
2024/03/23 03:24:09;;;;;;;18.70;3.90;;;6.50;57.00;;;;;;6305797;22;38318;-77
2024/03/23 03:26:35;;;;;;;14.90;2.77;;;6.60;50.40;;;;;;6278653;22;37867;-77
2024/03/23 03:29:02;;;;;;;19.23;3.73;;;6.50;51.40;;;;;;6278409;22;39912;-77
2024/03/23 03:31:28;;;;;;;12.93;2.33;;;6.60;36.40;;;;;;6305683;22;38652;-77
2024/03/23 03:33:54;;;;;;;13.07;2.03;;;6.60;44.30;;;;;;6276402;22;39939;-77
2024/03/23 03:36:20;;;;;;;18.67;2.90;;;6.50;54.30;;;;;;6275445;22;38167;-77
2024/03/23 03:38:47;;;;;;;11.90;2.47;;;6.60;50.40;;;;;;6278714;22;39503;-77
2024/03/23 03:41:13;;;;;;;19.67;3.60;;;6.60;53.30;;;;;;6277960;22;37444;-77
2024/03/23 03:43:39;;;;;;;17.67;2.23;;;6.60;56.10;;;;;;6279322;22;37268;-78
2024/03/23 03:46:07;;;;;;;11.87;2.13;;;6.50;69.00;;;;;;6277717;22;35881;-76
2024/03/23 03:48:34;;;;;;;10.67;2.13;;;6.60;49.30;;;;;;6306220;22;38622;-77
2024/03/23 03:51:00;;;;;;;11.97;2.13;;;6.60;37.40;;;;;;6278401;22;40104;-78
2024/03/23 03:53:26;;;;;;;16.13;2.93;;;6.70;30.30;;;;;;6277156;22;39772;-77
2024/03/23 03:55:52;;;;;;;15.03;2.40;;;6.80;28.50;;;;;;6278340;22;39050;-78
2024/03/23 03:58:18;;;;;;;14.10;2.40;;;6.60;39.80;;;;;;6277354;22;39466;-78
2024/03/23 04:00:44;;;;;;;14.47;2.03;;;6.60;36.80;;;;;;6278713;22;40650;-77
2024/03/23 04:03:10;;;;;;;14.00;2.53;;;6.60;35.40;;;;;;6305826;22;39657;-77
2024/03/23 04:05:37;;;;;;;15.57;2.17;;;6.60;37.30;;;;;;6278804;22;36380;-78
2024/03/23 04:08:05;;;;;;;13.10;2.37;;;6.50;48.40;;;;;;6277344;22;40247;-77
2024/03/23 04:10:31;;;;;;;23.93;2.70;;;6.50;51.40;;;;;;6279399;22;40753;-78
2024/03/23 04:12:59;;;;;;;16.10;2.47;;;6.40;53.10;;;;;;6280476;22;20030;-79
2024/03/23 04:15:25;;;;;;;15.33;2.47;;;6.40;51.50;;;;;;6277162;22;39062;-78
2024/03/23 04:17:51;;;;;;;10.17;2.87;;;6.30;53.80;;;;;;6306824;22;38808;-77
2024/03/23 04:20:17;;;;;;;12.90;2.33;;;6.30;51.70;;;;;;6305753;22;38838;-79
2024/03/23 04:22:44;;;;;;;17.90;3.07;;;6.30;65.40;;;;;;6307681;22;37826;-78
2024/03/23 04:25:10;;;;;;;22.37;2.63;;;6.30;61.90;;;;;;6306972;22;37114;-77
2024/03/23 04:27:37;;;;;;;16.13;3.27;;;6.20;60.80;;;;;;6278268;22;39849;-78
2024/03/23 04:30:09;;;;;;;15.83;2.87;;;6.20;64.00;;;;;;6279908;22;39498;-78
2024/03/23 04:32:36;;;;;;;15.32;3.03;;;6.20;74.70;;;;;;6304721;22;48150;-77
2024/03/23 04:35:05;;;;;;;21.17;3.50;;;6.20;62.10;;;;;;6279333;22;38469;-77
2024/03/23 04:37:34;;;;;;;26.23;3.97;;;6.20;57.80;;;;;;6304893;22;47556;-78
2024/03/23 04:40:01;;;;;;;17.70;2.47;;;6.20;55.10;;;;;;6279178;22;38537;-77
2024/03/23 04:42:28;;;;;;;22.77;3.73;;;6.20;56.50;;;;;;6305493;22;38823;-77
2024/03/23 04:44:54;;;;;;;16.57;2.60;;;6.20;65.50;;;;;;6279023;22;37593;-77
2024/03/23 04:47:20;;;;;;;22.23;4.37;;;6.20;57.10;;;;;;6278219;22;37843;-77
2024/03/23 04:49:46;;;;;;;8.77;2.47;;;6.20;64.50;;;;;;6308827;22;39134;-77
2024/03/23 04:52:12;;;;;;;13.90;2.97;;;6.30;67.50;;;;;;6278120;22;39235;-77
2024/03/23 04:54:42;;;;;;;20.03;4.40;;;6.30;55.60;;;;;;6278027;22;38651;-78
2024/03/23 04:57:08;;;;;;;14.37;2.97;;;6.40;59.00;;;;;;6303818;22;38725;-77
2024/03/23 04:59:34;;;;;;;16.67;3.70;;;6.50;57.70;;;;;;6277025;22;40275;-77
2024/03/23 05:02:00;;;;;;;19.03;5.23;;;6.50;61.60;;;;;;6275780;22;40169;-77
2024/03/23 05:04:27;;;;;;;19.47;3.60;;;6.60;57.70;;;;;;6305637;22;47892;-77
2024/03/23 05:06:53;;;;;;;12.40;2.57;;;6.60;53.60;;;;;;6279323;22;40610;-77
2024/03/23 05:09:19;;;;;;;18.57;3.30;;;6.60;54.40;;;;;;6278868;22;40464;-78
2024/03/23 05:11:46;;;;;;;16.90;3.10;;;6.60;49.70;;;;;;6278441;22;37361;-77
2024/03/23 05:14:13;;;;;;;17.00;2.87;;;6.60;54.50;;;;;;6278129;22;38004;-77
2024/03/23 05:16:40;;;;;;;18.43;2.93;;;6.50;52.30;;;;;;6279166;22;39603;-77
2024/03/23 05:19:06;;;;;;;13.77;4.03;;;6.50;53.60;;;;;;6279450;22;39175;-77
2024/03/23 05:21:33;;;;;;;19.70;3.00;;;6.50;55.20;;;;;;6278577;22;39397;-78
2024/03/23 05:23:59;;;;;;;17.60;3.50;;;6.50;56.10;;;;;;6309023;22;37066;-78
2024/03/23 05:26:25;;;;;;;16.37;3.40;;;6.50;57.50;;;;;;6275129;22;39464;-77
2024/03/23 05:28:51;;;;;;;13.17;2.63;;;6.60;57.20;;;;;;6305853;22;39023;-77
2024/03/23 05:31:28;;;;;;;19.60;4.20;;;6.60;56.00;;;;;;6277325;22;38932;-77
2024/03/23 05:33:55;;;;;;;16.60;3.17;;;6.70;49.00;;;;;;6278571;22;37588;-77
2024/03/23 05:36:21;;;;;;;15.97;2.70;;;6.70;47.70;;;;;;6278667;22;37508;-78
2024/03/23 05:38:48;;;;;;;13.87;3.43;;;6.70;47.50;;;;;;6279814;22;37708;-77
2024/03/23 05:41:14;;;;;;;15.67;3.63;;;6.70;47.60;;;;;;6305898;22;39801;-77
2024/03/23 05:43:40;;;;;;;15.03;3.03;;;6.80;42.20;;;;;;6278445;22;38052;-77
2024/03/23 05:46:09;;;;;;;19.60;3.50;;;6.70;39.40;;;;;;6307165;22;38803;-77
2024/03/23 05:48:36;;;;;;;17.73;3.07;;;6.80;37.40;;;;;;6305623;22;39565;-78
2024/03/23 05:51:02;;;;;;;10.37;2.80;;;6.80;34.30;;;;;;6279715;22;38841;-77
2024/03/23 05:53:30;;;;;;;14.17;3.07;;;6.80;29.40;;;;;;6305304;22;36811;-77
2024/03/23 05:56:09;;;;;;;17.63;3.43;;;6.80;32.40;;;;;;6277503;22;39092;-77
2024/03/23 05:58:35;;;;;;;16.23;3.10;;;6.80;35.20;;;;;;6277982;22;48582;-78
2024/03/23 06:01:02;;;;;;;11.80;2.87;;;6.80;29.30;;;;;;6308621;22;38275;-78
2024/03/23 06:03:29;;;;;;;20.03;2.87;;;6.80;26.70;;;;;;6277500;22;38002;-77
2024/03/23 06:05:56;;;;;;;15.43;2.80;;;6.80;27.20;;;;;;6279021;22;39187;-77
2024/03/23 06:08:23;;;;;;;10.17;2.40;;;6.80;23.70;;;;;;6278129;22;39509;-77
2024/03/23 06:10:53;;;;;;;15.33;2.30;;;6.80;22.70;;;;;;6278537;22;39444;-77
2024/03/23 06:13:24;;;;;;;18.00;3.13;;;6.80;21.40;;;;;;6278330;22;36735;-78
2024/03/23 06:15:50;;;;;;;15.07;2.73;;;6.70;24.50;;;;;;6306450;22;39934;-78
2024/03/23 06:18:16;;;;;;;15.17;2.17;;;6.70;19.90;;;;;;6279704;22;38071;-78
2024/03/23 06:20:42;;;;;;;15.37;2.90;;;6.70;17.30;;;;;;6279685;22;37821;-77
2024/03/23 06:23:09;;;;;;;12.80;2.43;;;6.70;19.20;;;;;;6306792;22;37799;-77
2024/03/23 06:25:35;;;;;;;10.30;2.10;;;6.70;19.60;;;;;;6276416;22;38400;-77
2024/03/23 06:28:03;;;;;;;14.87;2.40;;;6.70;20.00;;;;;;6276685;22;39270;-77
2024/03/23 06:30:29;;;;;;;8.90;1.97;;;6.80;20.10;;;;;;6305558;22;48701;-78
2024/03/23 06:32:55;;;;;;;18.00;2.73;;;6.80;20.30;;;;;;6277150;22;36193;-77
2024/03/23 06:35:21;;;;;;;16.20;2.53;;;6.80;16.50;;;;;;6277941;22;38883;-77
2024/03/23 06:37:47;;;;;;;12.77;2.60;;;6.80;18.30;;;;;;6306798;22;39526;-78
2024/03/23 06:40:14;;;;;;;15.07;2.93;;;6.80;17.80;;;;;;6275832;22;37483;-77
2024/03/23 06:42:40;;;;;;;9.93;2.00;;;6.80;12.70;;;;;;6278813;22;35984;-77
2024/03/23 06:45:06;;;;;;;14.90;2.63;;;6.90;12.50;;;;;;6278608;22;37918;-77
2024/03/23 06:47:33;;;;;;;11.57;2.60;;;6.90;12.50;;;;;;6279425;22;39150;-78
2024/03/23 06:50:03;;;;;;;20.50;3.43;;;7.00;11.70;;;;;;6279968;22;37379;-77
2024/03/23 06:52:30;;;;;;;17.27;2.30;;;7.10;6.60;;;;;;6278161;22;47116;-77
2024/03/23 06:54:57;;;;;;;8.53;1.83;;;7.10;1.00;;;;;;6281359;22;39081;-78
2024/03/23 06:57:23;;;;;;;24.43;3.57;;;7.10;1.00;;;;;;6309039;22;38932;-77
2024/03/23 06:59:49;;;;;;;19.27;2.93;;;7.20;1.00;;;;;;6309609;22;38104;-78
2024/03/23 07:02:17;;;;;;;16.50;2.30;;;7.30;1.00;;;;;;6278618;22;38883;-78
2024/03/23 07:04:43;;;;;;;21.30;2.70;;;7.30;1.00;;;;;;6281633;22;39425;-78
2024/03/23 07:07:09;;;;;;;14.50;2.70;;;7.30;1.00;;;;;;6308509;22;38846;-76
2024/03/23 07:09:37;;;;;;;12.63;2.20;;;7.30;1.00;;;;;;6280207;22;37440;-75
2024/03/23 07:12:04;;;;;;;13.60;2.23;;;7.30;1.00;;;;;;6309343;22;37157;-75
2024/03/23 07:14:30;;;;;;;11.90;2.40;;;7.40;1.00;;;;;;6280433;22;39752;-76
2024/03/23 07:16:57;;;;;;;14.93;2.83;;;7.40;1.00;;;;;;6311141;22;38993;-76
2024/03/23 07:19:24;;;;;;;14.70;2.27;;;7.50;1.00;;;;;;6306204;22;38586;-76
2024/03/23 07:21:50;;;;;;;12.37;2.47;;;7.50;1.00;;;;;;6280176;22;38111;-75
2024/03/23 07:24:16;;;;;;;12.53;2.57;;;7.60;1.00;;;;;;6305487;22;38824;-76
2024/03/23 07:26:43;;;;;;;16.53;2.90;;;7.70;1.00;;;;;;6308042;22;38714;-76
2024/03/23 07:29:09;;;;;;;13.67;2.43;;;7.90;1.00;;;;;;6279887;22;39224;-76
2024/03/23 07:31:35;;;;;;;14.93;2.77;;;7.90;1.00;;;;;;6279909;22;37809;-75
2024/03/23 07:34:01;;;;;;;13.37;2.40;;;7.90;1.00;;;;;;6278094;22;38123;-76
2024/03/23 07:36:27;;;;;;;12.73;2.20;;;8.00;1.00;;;;;;6306678;22;39828;-76
2024/03/23 07:38:54;;;;;;;13.93;2.37;;;8.00;1.00;;;;;;6278436;22;40172;-76
2024/03/23 07:41:21;;;;;;;14.00;2.57;;;7.90;1.00;;;;;;6276449;22;37618;-75
2024/03/23 07:43:48;;;;;;;14.80;2.23;;;7.80;1.00;;;;;;6280031;22;40319;-76
2024/03/23 07:46:15;;;;;;;14.20;2.63;;;7.70;1.00;;;;;;6304481;22;39485;-76
2024/03/23 07:48:42;;;;;;;19.87;1.80;;;7.70;1.00;;;;;;6277670;22;39297;-75
2024/03/23 07:51:10;;;;;;;14.87;2.10;;;7.80;1.00;;;;;;6304913;22;36959;-76
2024/03/23 07:53:37;;;;;;;15.53;2.77;;;7.90;1.00;;;;;;6305532;22;38624;-76
2024/03/23 07:56:09;;;;;;;7.63;1.70;;;7.90;1.00;;;;;;6276344;22;37619;-76
2024/03/23 07:58:37;;;;;;;10.00;1.65;;;8.00;1.00;;;;;;6277618;22;39819;-76
2024/03/23 08:01:10;;;;;;;10.20;1.53;;;8.10;1.00;;;;;;6277805;22;38470;-75
2024/03/23 08:03:37;;;;;;;15.67;2.00;;;8.30;1.00;;;;;;6277822;22;39312;-75
2024/03/23 08:06:14;;;;;;;12.63;2.17;;;8.30;1.00;;;;;;6278305;22;38039;-75
2024/03/23 08:08:43;;;;;;;14.60;2.47;;;8.40;1.00;;;;;;6279274;22;38091;-75
2024/03/23 08:11:09;;;;;;;14.73;2.17;;;8.30;1.00;;;;;;6307474;22;36885;-75
2024/03/23 08:13:38;;;;;;;12.30;2.03;;;8.40;1.00;;;;;;6279313;22;38007;-75
2024/03/23 08:16:04;;;;;;;12.47;2.70;;;8.30;1.00;;;;;;6278308;22;38826;-75
2024/03/23 08:18:31;;;;;;;19.90;2.77;;;8.20;1.00;;;;;;6279106;22;38912;-76
2024/03/23 08:21:01;;;;;;;13.00;3.40;;;8.20;1.00;;;;;;6306570;22;37859;-76
2024/03/23 08:23:28;;;;;;;11.27;3.07;;;8.10;1.00;;;;;;6276025;22;47199;-76
2024/03/23 08:25:58;;;;;;;18.60;2.80;;;8.10;1.00;;;;;;6275414;22;39256;-76
2024/03/23 08:28:25;;;;;;;13.00;2.37;;;8.10;1.00;;;;;;6304754;22;38502;-76
2024/03/23 08:30:52;;;;;;;12.10;2.20;;;8.10;1.00;;;;;;6275466;22;36906;-76
2024/03/23 08:33:18;;;;;;;10.40;2.10;;;8.30;1.00;;;;;;6306454;22;38556;-76
2024/03/23 08:36:02;;;;;;;16.07;3.13;;;8.70;1.00;;;;;;6279506;22;39557;-76
2024/03/23 08:38:29;;;;;;;14.73;2.70;;;8.80;1.00;;;;;;6308302;22;48611;-76
2024/03/23 08:41:04;;;;;;;14.93;2.80;;;8.50;1.00;;;;;;6303081;22;37960;-75
2024/03/23 08:43:32;;;;;;;14.83;2.57;;;8.30;1.00;;;;;;6277213;22;47399;-75
2024/03/23 08:46:15;;;;;;;14.03;3.50;;;8.40;1.00;;;;;;6277735;22;38957;-75
2024/03/23 08:48:45;;;;;;;;;;;8.60;1.00;;;;;;6275204;22;47191;-74
2024/03/23 08:51:13;;;;;;;15.50;3.17;;;8.80;1.00;;;;;;6274837;22;38412;-75
2024/03/23 08:53:39;;;;;;;19.60;2.90;;;9.00;1.00;;;;;;6304172;22;38759;-75
2024/03/23 08:56:07;;;;;;;13.43;2.40;;;9.00;1.00;;;;;;6305739;22;39709;-75
2024/03/23 08:58:34;;;;;;;15.33;2.90;;;9.00;1.00;;;;;;6307177;22;39820;-75
2024/03/23 09:01:06;;;;;;;16.10;2.00;;;8.80;1.00;;;;;;6278290;22;39015;-75
2024/03/23 09:03:33;;;;;;;14.05;3.10;;;8.90;1.00;;;;;;6306431;22;48845;-75
2024/03/23 09:05:59;;;;;;;16.77;2.73;;;8.70;1.00;;;;;;6279408;22;39313;-75
2024/03/23 09:08:26;;;;;;;14.37;2.07;;;8.70;1.00;;;;;;6278505;22;38207;-75
2024/03/23 09:10:52;;;;;;;13.17;2.43;;;8.50;1.00;;;;;;6307084;22;36715;-75
2024/03/23 09:13:18;;;;;;;15.90;2.27;;;8.30;1.00;;;;;;6307335;22;40206;-75
2024/03/23 09:15:56;;;;;;;11.17;2.20;;;8.20;1.00;;;;;;6278851;22;38975;-75
2024/03/23 09:18:22;;;;;;;17.30;2.20;;;8.40;1.00;;;;;;6306551;22;39381;-75
2024/03/23 09:20:48;;;;;;;17.30;2.97;;;8.60;1.00;;;;;;6275499;22;37578;-75
2024/03/23 09:23:14;;;;;;;11.90;2.03;;;8.70;1.00;;;;;;6306363;22;39696;-74
2024/03/23 09:25:40;;;;;;;11.63;2.27;;;8.60;1.00;;;;;;6305599;22;40623;-74
2024/03/23 09:28:10;;;;;;;13.93;2.57;;;8.90;1.00;;;;;;6307004;22;38687;-75
2024/03/23 09:30:42;;;;;;;13.00;2.70;;;9.30;1.00;;;;;;6304425;22;37106;-75
2024/03/23 09:33:09;;;;;;;14.50;2.50;;;9.50;1.00;;;;;;6274831;22;37699;-75
2024/03/23 09:35:43;;;;;;;13.77;1.93;;;9.60;1.00;;;;;;6276593;22;39138;-75
2024/03/23 09:38:09;;;;;;;7.43;1.80;;;9.80;1.00;;;;;;6275272;22;38930;-75
2024/03/23 09:40:40;;;;;;;13.67;2.27;;;10.00;99.90;;;;;;6276144;22;37922;-75
2024/03/23 09:43:07;;;;;;;10.87;2.00;;;9.70;1.00;;;;;;6275445;22;40109;-75
2024/03/23 09:45:38;;;;;;;11.47;1.97;;;9.50;1.00;;;;;;6303060;22;39248;-74
2024/03/23 09:48:06;;;;;;;10.60;2.13;;;9.60;1.00;;;;;;6273826;22;38674;-75
2024/03/23 09:50:32;;;;;;;11.47;2.40;;;9.80;1.00;;;;;;6269285;22;37497;-75
2024/03/23 09:52:59;;;;;;;12.52;2.67;;;10.10;99.90;;;;;;6276758;22;39678;-75
2024/03/23 09:55:25;;;;;;;9.20;1.70;;;9.90;1.00;;;;;;6276432;22;39927;-74
2024/03/23 09:57:51;;;;;;;13.63;3.05;;;9.70;11.90;;;;;;6276996;22;40281;-74
2024/03/23 10:00:17;;;;;;;12.35;2.75;;;9.70;1.00;;;;;;6277238;22;37960;-75
2024/03/23 10:02:43;;;;;;;8.50;1.93;;;9.60;99.90;;;;;;6303193;22;39049;-75
2024/03/23 10:05:23;;;;;;;16.07;2.13;;;9.40;99.90;;;;;;6274501;22;40265;-74
2024/03/23 10:07:52;;;;;;;11.87;2.13;;;9.20;99.90;;;;;;6275462;22;39243;-75
2024/03/23 10:10:19;;;;;;;13.83;3.03;;;8.90;1.00;;;;;;6275261;22;37590;-75
2024/03/23 10:12:52;;;;;;;12.57;2.13;;;8.80;1.00;;;;;;6302503;22;38536;-75
2024/03/23 10:15:20;;;;;;;16.57;2.33;;;8.80;1.00;;;;;;6303004;22;39531;-75
2024/03/23 10:17:46;;;;;;;9.13;1.90;;;8.80;1.00;;;;;;6276653;22;37468;-75
2024/03/23 10:20:13;;;;;;;10.53;1.73;;;9.30;1.00;;;;;;6276894;22;37922;-75
2024/03/23 10:22:39;;;;;;;10.37;2.20;;;10.00;1.00;;;;;;6277911;22;40462;-75
2024/03/23 10:25:09;;;;;;;16.00;2.73;;;10.20;99.90;;;;;;6304188;22;38747;-75
2024/03/23 10:27:36;;;;;;;12.60;2.00;;;9.90;99.90;;;;;;6305762;22;38296;-75
2024/03/23 10:30:16;;;;;;;9.67;2.13;;;9.90;99.90;;;;;;6278032;22;36277;-75
2024/03/23 10:32:43;;;;;;;10.97;1.90;;;9.70;99.90;;;;;;6275564;22;49628;-75
2024/03/23 10:35:21;;;;;;;10.27;2.30;;;9.90;1.00;;;;;;6305547;22;38680;-75
2024/03/23 10:37:51;;;;;;;12.47;2.33;;;10.30;99.90;;;;;;6273941;22;39484;-75
2024/03/23 10:40:18;;;;;;;15.15;2.70;;;10.30;31.30;;;;;;6277546;22;36250;-74
2024/03/23 10:42:44;;;;;;;14.63;2.55;;;10.10;99.90;;;;;;6305519;22;39431;-74
2024/03/23 10:45:11;;;;;;;19.17;3.47;;;10.10;1.00;;;;;;6302682;22;39018;-75
2024/03/23 10:47:37;;;;;;;14.77;2.70;;;9.60;1.00;;;;;;6277660;22;37617;-75
2024/03/23 10:50:05;;;;;;;14.23;2.20;;;9.20;99.90;;;;;;6275067;22;36355;-75
2024/03/23 10:52:33;;;;;;;12.57;1.90;;;8.90;1.00;;;;;;6305064;22;39716;-75
2024/03/23 10:55:02;;;;;;;11.33;1.93;;;9.10;99.90;;;;;;6271802;22;38070;-75
2024/03/23 10:57:36;;;;;;;11.30;1.87;;;9.00;99.90;;;;;;6271914;22;47494;-76
2024/03/23 11:00:03;;;;;;;11.73;2.13;;;8.90;1.00;;;;;;6302004;22;37015;-76
2024/03/23 11:02:30;;;;;;;17.23;2.37;;;8.80;1.00;;;;;;6269863;22;38976;-75
2024/03/23 11:04:56;;;;;;;17.23;2.50;;;8.90;1.00;;;;;;6299642;22;39225;-76
2024/03/23 11:07:28;;;;;;;10.83;2.23;;;9.20;99.90;;;;;;6274969;22;38511;-76
2024/03/23 11:09:54;;;;;;;;;;;9.10;99.90;;;;;;6276727;22;36285;-75
2024/03/23 11:12:23;;;;;;;14.57;2.63;;;9.20;99.90;;;;;;6272152;22;39435;-75
2024/03/23 11:15:10;;;;;;;10.93;1.90;;;9.70;99.70;;;;;;6304685;22;39025;-75
2024/03/23 11:17:37;;;;;;;9.10;1.40;;;10.20;99.90;;;;;;6274570;22;47373;-75
2024/03/23 11:20:13;;;;;;;12.23;1.63;;;10.80;99.90;;;;;;6276784;22;36442;-74
2024/03/23 11:22:47;;;;;;;12.57;2.10;;;10.60;1.00;;;;;;6273201;22;47290;-76
2024/03/23 11:25:20;;;;;;;13.82;2.53;;;10.90;1.00;;;;;;6274463;22;38169;-75
2024/03/23 11:27:48;;;;;;;6.60;2.00;;;10.80;10.60;;;;;;6273223;22;37642;-75
2024/03/23 11:30:19;;;;;;;8.48;2.00;;;10.60;1.00;;;;;;6272355;22;36144;-74
2024/03/23 11:32:46;;;;;;;12.43;2.10;;;10.50;1.00;;;;;;6302664;22;38589;-74
2024/03/23 11:35:29;;;;;;;9.57;1.97;;;9.80;1.00;;;;;;6271305;22;39202;-74
2024/03/23 11:38:12;;;;;;;9.25;2.22;;;10.00;1.00;;;;;;6270912;22;37433;-75
2024/03/23 11:40:41;;;;;;;14.17;2.53;;;10.20;1.00;;;;;;6270084;22;47427;-74
2024/03/23 11:43:08;;;;;;;11.43;1.83;;;10.40;99.90;;;;;;6274029;22;39805;-74
2024/03/23 11:45:40;;;;;;;17.00;2.75;;;10.30;99.90;;;;;;6304403;22;39564;-74
2024/03/23 11:48:12;;;;;;;13.90;2.25;;;10.10;1.00;;;;;;6274905;22;37319;-75
2024/03/23 11:50:40;;;;;;;14.48;2.30;;;10.00;99.90;;;;;;6301273;22;36861;-74
2024/03/23 11:53:07;;;;;;;10.50;2.15;;;10.10;99.90;;;;;;6302079;22;38696;-74
2024/03/23 11:55:55;;;;;;;12.02;2.28;;;10.40;99.90;;;;;;6274686;22;38202;-74
2024/03/23 11:58:23;;;;;;;9.75;1.88;;;10.40;99.90;;;;;;6302332;22;38434;-74
2024/03/23 12:00:57;;;;;;;12.80;2.90;;;10.50;99.90;;;;;;6273787;22;37593;-74
2024/03/23 12:03:28;;;;;;;12.15;2.17;;;10.40;1.00;;;;;;6273845;22;37582;-73
2024/03/23 12:06:01;;;;;;;12.25;2.22;;;10.30;1.00;;;;;;6275278;22;39162;-74
2024/03/23 12:08:35;;;;;;;10.63;2.20;;;10.10;1.00;;;;;;6273959;22;47410;-74
2024/03/23 12:11:14;;;;;;;11.45;1.83;;;10.00;99.90;;;;;;6274501;22;37385;-75
2024/03/23 12:13:43;;;;;;;12.63;2.08;;;10.20;1.00;;;;;;6300341;22;48726;-75
2024/03/23 12:16:20;;;;;;;12.27;2.58;;;10.40;1.00;;;;;;6270853;22;39568;-74
2024/03/23 12:18:50;;;;;;;8.75;2.20;;;10.50;1.00;;;;;;6274008;22;38845;-75
2024/03/23 12:21:17;;;;;;;13.82;2.00;;;10.40;1.00;;;;;;6301434;22;36737;-74
2024/03/23 12:23:44;;;;;;;9.63;1.75;;;9.90;99.90;;;;;;6278144;22;40350;-74
2024/03/23 12:26:12;;;;;;;9.60;1.80;;;9.70;25.10;;;;;;6303750;22;39016;-74
2024/03/23 12:28:38;;;;;;;11.57;2.00;;;9.70;1.00;;;;;;6271821;22;37746;-78
2024/03/23 12:31:05;;;;;;;11.45;2.22;;;10.00;1.00;;;;;;6300412;22;36929;-78
2024/03/23 12:33:31;;;;;;;7.13;1.40;;;10.20;1.00;;;;;;6302023;22;38557;-78
2024/03/23 12:35:57;;;;;;;10.63;1.88;;;10.50;1.00;;;;;;6276233;22;37766;-78
2024/03/23 12:38:24;;;;;;;11.50;1.80;;;10.40;99.90;;;;;;6274464;22;38091;-78
2024/03/23 12:40:50;;;;;;;11.15;1.88;;;10.20;99.90;;;;;;6274440;22;35950;-77
2024/03/23 12:43:17;;;;;;;9.52;2.13;;;10.30;1.00;;;;;;6303922;22;39391;-77
2024/03/23 12:45:47;;;;;;;11.38;1.90;;;10.60;1.00;;;;;;6276491;22;40390;-78
2024/03/23 12:48:13;;;;;;;11.57;1.92;;;10.90;1.00;;;;;;6272706;22;39353;-78
2024/03/23 12:50:40;;;;;;;10.52;2.00;;;11.10;99.90;;;;;;6271615;22;38415;-78
2024/03/23 12:53:06;;;;;;;10.23;2.15;;;10.90;97.20;;;;;;6299869;22;39699;-78
2024/03/23 12:55:34;;;;;;;9.27;1.75;;;10.90;1.00;;;;;;6303793;22;39943;-77